createdAt,value
2022-08-11T00:06:55.984Z,100359.16
2022-08-11T00:17:03.912Z,100357.84
2022-08-11T00:27:10.452Z,100356.55
2022-08-11T00:37:23.263Z,100357.21
2022-08-11T00:47:44.231Z,100359.27
2022-08-11T00:58:22.543Z,100361.05
2022-08-11T01:09:02.358Z,100360.91
2022-08-11T01:20:45.415Z,100355.92
2022-08-11T01:30:58.784Z,100361.55
2022-08-11T01:42:05.417Z,100356.87
2022-08-11T01:52:19.841Z,100357.44
2022-08-11T02:02:47.878Z,100361.46
2022-08-11T02:12:56.761Z,100364.52
2022-08-11T02:24:07.206Z,100363.73
2022-08-11T02:33:58.721Z,100360.41
2022-08-11T02:44:18.478Z,100358.34
2022-08-11T02:54:30.834Z,100358.46
2022-08-11T03:04:51.412Z,100355.59
2022-08-11T03:15:20.883Z,100351.58
2022-08-11T03:25:32.622Z,100345.77
2022-08-11T03:35:46.579Z,100352.66
2022-08-11T03:46:02.942Z,100356.20
2022-08-11T03:56:23.807Z,100353.26
2022-08-11T04:06:51.636Z,100354.72
2022-08-11T04:17:22.704Z,100356.42
2022-08-11T04:27:48.375Z,100363.30
2022-08-11T04:38:37.800Z,100370.05
2022-08-11T04:49:25.835Z,100370.07
2022-08-11T05:00:21.067Z,100375.61
2022-08-11T05:10:43.333Z,100377.27
2022-08-11T05:21:13.226Z,100372.14
2022-08-11T05:31:41.125Z,100364.19
2022-08-11T05:42:05.700Z,100365.80
2022-08-11T05:52:38.345Z,100362.35
2022-08-11T06:02:51.126Z,100363.36
2022-08-11T06:13:01.190Z,100365.55
2022-08-11T06:23:09.985Z,100362.88
2022-08-11T06:33:19.243Z,100362.52
2022-08-11T06:43:28.957Z,100360.98
2022-08-11T06:53:37.186Z,100363.29
2022-08-11T07:03:47.831Z,100354.27
2022-08-11T07:14:17.183Z,100353.64
2022-08-11T07:25:01.420Z,100352.98
2022-08-11T07:35:14.260Z,100350.39
2022-08-11T07:45:40.764Z,100341.65
2022-08-11T07:55:51.837Z,100338.73
2022-08-11T08:06:23.277Z,100336.60
2022-08-11T08:17:02.002Z,100336.41
2022-08-11T08:27:08.737Z,100339.16
2022-08-11T08:37:46.008Z,100343.11
2022-08-11T08:47:52.463Z,100353.63
2022-08-11T08:58:01.446Z,100352.41
2022-08-11T09:08:07.883Z,100346.14
2022-08-11T09:18:14.910Z,100345.20
2022-08-11T09:28:23.021Z,100337.94
2022-08-11T09:38:49.587Z,100340.12
2022-08-11T09:48:59.126Z,100331.52
2022-08-11T09:59:06.928Z,100329.21
2022-08-11T10:09:14.422Z,100317.39
2022-08-11T10:19:22.171Z,100310.23
2022-08-11T10:30:07.791Z,100310.95
2022-08-11T10:40:18.446Z,100295.94
2022-08-11T10:50:42.275Z,100290.04
2022-08-11T11:00:50.011Z,100277.91
2022-08-11T11:10:56.834Z,100265.73
2022-08-11T11:21:07.570Z,100261.84
2022-08-11T11:31:26.180Z,100246.52
2022-08-11T11:41:32.594Z,100230.50
2022-08-11T11:51:40.317Z,100203.58
2022-08-11T12:01:50.527Z,100192.34
2022-08-11T12:12:18.957Z,100180.67
2022-08-11T12:22:42.697Z,100177.56
2022-08-11T12:32:49.108Z,100170.59
2022-08-11T12:43:21.659Z,100171.34
2022-08-11T12:53:33.270Z,100152.86
2022-08-11T13:03:57.407Z,100134.88
2022-08-11T13:14:04.392Z,100138.45
2022-08-11T13:24:10.771Z,100131.73
2022-08-11T13:34:19.755Z,100132.67
2022-08-11T13:44:28.219Z,100163.89
2022-08-11T13:54:38.427Z,100204.21
2022-08-11T14:04:46.974Z,100223.54
2022-08-11T14:15:08.220Z,100243.33
2022-08-11T14:25:16.918Z,100221.15
2022-08-11T14:35:23.039Z,100219.77
2022-08-11T14:45:58.247Z,100218.59
2022-08-11T14:56:21.222Z,100179.61
2022-08-11T15:06:29.590Z,100188.88
2022-08-11T15:16:54.858Z,100188.20
2022-08-11T15:27:34.408Z,100193.98
2022-08-11T15:37:42.490Z,100203.08
2022-08-11T15:48:05.064Z,100202.44
2022-08-11T15:58:30.687Z,100198.96
2022-08-11T16:08:39.033Z,100194.27
2022-08-11T16:18:51.642Z,100181.83
2022-08-11T16:28:59.343Z,100161.63
2022-08-11T16:39:07.614Z,100152.67
2022-08-11T16:49:18.244Z,100141.25
2022-08-11T16:59:30.798Z,100133.65
2022-08-11T17:09:56.968Z,100128.99
2022-08-11T17:20:40.583Z,100126.83
2022-08-11T17:30:49.448Z,100125.86
2022-08-11T17:41:30.177Z,100122.86
2022-08-11T17:51:55.023Z,100116.92
2022-08-11T18:02:29.581Z,100119.92
2022-08-11T18:12:58.655Z,100123.52
2022-08-11T18:23:46.217Z,100127.61
2022-08-11T18:34:14.102Z,100124.88
2022-08-11T18:44:36.570Z,100134.79
2022-08-11T18:55:03.550Z,100137.67
2022-08-11T19:06:33.732Z,100151.85
2022-08-11T19:16:14.548Z,100160.21
2022-08-11T19:26:39.192Z,100162.02
2022-08-11T19:37:04.063Z,100164.27
2022-08-11T19:47:28.920Z,100171.80
2022-08-11T19:57:55.363Z,100172.40
2022-08-11T20:08:19.929Z,100165.29
2022-08-11T20:18:45.594Z,100160.27
2022-08-11T20:29:12.482Z,100168.90
2022-08-11T20:39:36.567Z,100172.66
2022-08-11T20:50:03.009Z,100172.08
2022-08-11T21:00:38.749Z,100170.36
2022-08-11T21:11:06.323Z,100163.89
2022-08-11T21:21:45.621Z,100166.23
2022-08-11T21:32:11.814Z,100170.77
2022-08-11T21:42:37.926Z,100164.51
2022-08-11T21:53:02.118Z,100164.84
2022-08-11T22:03:26.603Z,100166.65
2022-08-11T22:14:06.327Z,100167.91
2022-08-11T22:24:32.782Z,100155.73
2022-08-11T22:34:57.813Z,100156.73
2022-08-11T22:45:21.429Z,100155.04
2022-08-11T22:55:46.386Z,100139.75
2022-08-11T23:06:10.421Z,100144.60
2022-08-11T23:16:34.927Z,100149.25
2022-08-11T23:26:58.979Z,100147.27
2022-08-11T23:37:22.802Z,100143.56
2022-08-11T23:47:50.532Z,100138.52
2022-08-11T23:58:15.086Z,100130.38
